createdAt,value
2022-08-02T00:00:33.686Z,19.40
2022-08-02T00:03:00.380Z,19.40
2022-08-02T00:05:27.235Z,19.50
2022-08-02T00:07:53.988Z,19.40
2022-08-02T00:10:20.720Z,19.40
2022-08-02T00:12:47.568Z,19.40
2022-08-02T00:15:15.817Z,19.30
2022-08-02T00:17:43.956Z,19.20
2022-08-02T00:20:12.550Z,19.20
2022-08-02T00:22:39.443Z,19.30
2022-08-02T00:25:06.885Z,19.30
2022-08-02T00:27:33.726Z,19.30
2022-08-02T00:30:00.491Z,19.30
2022-08-02T00:32:27.374Z,19.30
2022-08-02T00:34:54.190Z,19.20
2022-08-02T00:37:20.929Z,19.20
2022-08-02T00:39:47.653Z,19.20
2022-08-02T00:42:15.507Z,19.20
2022-08-02T00:44:43.011Z,19.20
2022-08-02T00:47:09.941Z,19.10
2022-08-02T00:49:37.457Z,19.10
2022-08-02T00:52:05.087Z,19.10
2022-08-02T00:54:31.934Z,19.00
2022-08-02T00:56:58.719Z,19.00
2022-08-02T00:59:25.497Z,19.00
2022-08-02T01:01:56.261Z,19.00
2022-08-02T01:04:30.560Z,19.00
2022-08-02T01:07:01.672Z,19.00
2022-08-02T01:09:28.646Z,19.00
2022-08-02T01:11:55.590Z,19.00
2022-08-02T01:14:24.542Z,19.00
2022-08-02T01:17:06.388Z,19.00
2022-08-02T01:19:36.615Z,19.00
2022-08-02T01:22:59.486Z,19.00
2022-08-02T01:25:51.557Z,19.00
2022-08-02T01:28:26.563Z,19.00
2022-08-02T01:31:04.635Z,19.00
2022-08-02T01:33:39.324Z,19.00
2022-08-02T01:36:11.880Z,18.90
2022-08-02T01:38:42.794Z,18.90
2022-08-02T01:41:12.643Z,18.90
2022-08-02T01:43:42.232Z,18.90
2022-08-02T01:46:10.797Z,18.90
2022-08-02T01:48:40.722Z,18.90
2022-08-02T01:51:12.043Z,18.90
2022-08-02T01:53:40.859Z,18.90
2022-08-02T01:56:09.050Z,18.90
2022-08-02T01:58:37.471Z,18.80
2022-08-02T02:01:06.331Z,18.90
2022-08-02T02:03:35.943Z,18.90
2022-08-02T02:06:11.341Z,18.90
2022-08-02T02:08:41.669Z,18.80
2022-08-02T02:12:12.086Z,18.80
2022-08-02T02:13:58.839Z,18.70
2022-08-02T02:16:27.368Z,18.70
2022-08-02T02:18:55.241Z,18.70
2022-08-02T02:21:22.313Z,18.70
2022-08-02T02:23:50.007Z,18.70
2022-08-02T02:26:29.756Z,18.70
2022-08-02T02:29:02.179Z,18.60
2022-08-02T02:31:34.425Z,18.60
2022-08-02T02:34:15.075Z,18.60
2022-08-02T02:36:48.183Z,18.60
2022-08-02T02:39:17.739Z,18.60
2022-08-02T02:41:45.637Z,18.60
2022-08-02T02:44:16.674Z,18.60
2022-08-02T02:46:44.537Z,18.60
2022-08-02T02:49:13.112Z,18.60
2022-08-02T02:51:40.790Z,18.50
2022-08-02T02:54:31.070Z,18.50
2022-08-02T02:56:58.114Z,18.50
2022-08-02T02:59:25.775Z,18.50
2022-08-02T03:01:57.177Z,18.50
2022-08-02T03:04:27.031Z,18.40
2022-08-02T03:06:53.974Z,18.50
2022-08-02T03:09:20.758Z,18.50
2022-08-02T03:11:48.382Z,18.40
2022-08-02T03:14:15.449Z,18.40
2022-08-02T03:16:44.811Z,18.50
2022-08-02T03:19:11.675Z,18.40
2022-08-02T03:21:38.782Z,18.40
2022-08-02T03:24:07.334Z,18.40
2022-08-02T03:26:34.507Z,18.40
2022-08-02T03:29:11.008Z,18.40
2022-08-02T03:31:41.714Z,18.40
2022-08-02T03:34:08.767Z,18.40
2022-08-02T03:36:36.481Z,18.30
2022-08-02T03:39:04.257Z,18.20
2022-08-02T03:41:31.962Z,18.10
2022-08-02T03:43:59.738Z,18.10
2022-08-02T03:46:26.957Z,18.10
2022-08-02T03:48:56.132Z,18.10
2022-08-02T03:51:23.490Z,18.10
2022-08-02T03:53:50.605Z,18.20
2022-08-02T03:56:17.510Z,18.10
2022-08-02T03:58:48.829Z,18.10
2022-08-02T04:01:16.519Z,18.20
2022-08-02T04:03:43.591Z,18.20
2022-08-02T04:06:10.421Z,18.10
2022-08-02T04:08:38.627Z,18.00
2022-08-02T04:11:24.689Z,18.00
2022-08-02T04:13:52.068Z,18.00
2022-08-02T04:16:29.108Z,17.90
2022-08-02T04:18:58.545Z,17.90
2022-08-02T04:21:49.236Z,17.80
2022-08-02T04:24:24.325Z,17.80
2022-08-02T04:26:58.025Z,17.80
2022-08-02T04:29:31.671Z,17.70
2022-08-02T04:31:59.513Z,17.70
2022-08-02T04:34:26.347Z,17.70
2022-08-02T04:36:53.297Z,17.70
2022-08-02T04:39:20.110Z,17.60
2022-08-02T04:41:47.911Z,17.60
2022-08-02T04:44:14.758Z,17.60
2022-08-02T04:46:43.212Z,17.60
2022-08-02T04:49:10.477Z,17.60
2022-08-02T04:51:42.213Z,17.60
2022-08-02T04:54:10.832Z,17.60
2022-08-02T04:56:39.096Z,17.60
2022-08-02T04:59:07.054Z,17.60
2022-08-02T05:01:35.636Z,17.60
2022-08-02T05:04:02.895Z,17.60
2022-08-02T05:06:29.657Z,17.60
2022-08-02T05:08:56.463Z,17.70
2022-08-02T05:11:36.210Z,17.70
2022-08-02T05:14:05.524Z,17.70
2022-08-02T05:16:32.687Z,17.70
2022-08-02T05:19:00.961Z,17.80
2022-08-02T05:21:28.079Z,17.80
2022-08-02T05:23:54.805Z,17.90
2022-08-02T05:26:21.574Z,17.90
2022-08-02T05:28:48.284Z,18.00
2022-08-02T05:31:15.089Z,18.00
2022-08-02T05:33:41.963Z,18.10
2022-08-02T05:36:09.607Z,18.10
2022-08-02T05:38:37.827Z,18.20
2022-08-02T05:41:05.568Z,18.20
2022-08-02T05:43:33.009Z,18.20
2022-08-02T05:46:00.179Z,18.20
2022-08-02T05:48:31.602Z,18.30
2022-08-02T05:51:04.192Z,18.30
2022-08-02T05:53:40.141Z,18.30
2022-08-02T05:56:18.585Z,18.40
2022-08-02T05:59:17.911Z,18.40
2022-08-02T06:01:48.588Z,18.40
2022-08-02T06:04:33.244Z,18.50
2022-08-02T06:07:07.064Z,18.50
2022-08-02T06:09:34.814Z,18.50
2022-08-02T06:12:03.335Z,18.50
2022-08-02T06:14:34.155Z,18.50
2022-08-02T06:17:05.312Z,18.60
2022-08-02T06:19:46.803Z,18.60
2022-08-02T06:22:31.472Z,18.70
2022-08-02T06:25:04.475Z,18.80
2022-08-02T06:27:32.357Z,18.90
2022-08-02T06:29:59.278Z,19.00
2022-08-02T06:32:27.408Z,19.10
2022-08-02T06:34:54.246Z,19.20
2022-08-02T06:37:41.243Z,19.20
2022-08-02T06:40:26.906Z,19.30
2022-08-02T06:43:07.148Z,19.40
2022-08-02T06:45:34.549Z,19.40
2022-08-02T06:48:01.584Z,19.40
2022-08-02T06:50:28.447Z,19.50
2022-08-02T06:52:55.290Z,19.60
2022-08-02T06:55:22.170Z,19.70
2022-08-02T06:57:48.933Z,19.80
2022-08-02T07:00:15.926Z,19.90
2022-08-02T07:02:43.018Z,20.00
2022-08-02T07:05:10.081Z,20.00
2022-08-02T07:07:37.118Z,20.10
2022-08-02T07:10:04.614Z,20.20
2022-08-02T07:12:32.716Z,20.30
2022-08-02T07:15:00.875Z,20.40
2022-08-02T07:17:28.417Z,20.50
2022-08-02T07:19:55.412Z,20.70
2022-08-02T07:22:23.591Z,20.80
2022-08-02T07:24:51.405Z,20.90
2022-08-02T07:27:18.717Z,21.00
2022-08-02T07:29:46.989Z,21.00
2022-08-02T07:32:18.596Z,21.10
2022-08-02T07:34:50.916Z,21.20
2022-08-02T07:37:36.137Z,21.30
2022-08-02T07:40:14.749Z,21.40
2022-08-02T07:42:47.298Z,21.50
2022-08-02T07:45:14.678Z,21.60
2022-08-02T07:47:43.897Z,21.70
2022-08-02T07:50:12.631Z,21.80
2022-08-02T07:52:40.627Z,22.00
2022-08-02T07:55:08.779Z,22.10
2022-08-02T07:57:36.251Z,22.20
2022-08-02T08:00:04.923Z,22.30
2022-08-02T08:02:31.726Z,22.30
2022-08-02T08:04:58.466Z,22.50
2022-08-02T08:07:25.506Z,22.60
2022-08-02T08:09:56.469Z,22.60
2022-08-02T08:12:23.431Z,22.70
2022-08-02T08:14:50.231Z,22.80
2022-08-02T08:17:17.373Z,23.00
2022-08-02T08:19:51.446Z,23.10
2022-08-02T08:22:20.509Z,23.20
2022-08-02T08:24:48.396Z,23.30
2022-08-02T08:27:16.223Z,23.40
2022-08-02T08:29:43.769Z,23.60
2022-08-02T08:32:16.150Z,23.70
2022-08-02T08:34:44.258Z,23.90
2022-08-02T08:37:16.857Z,24.00
2022-08-02T08:39:56.761Z,24.20
2022-08-02T08:42:28.560Z,24.40
2022-08-02T08:44:56.795Z,24.50
2022-08-02T08:47:33.473Z,24.70
2022-08-02T08:50:05.999Z,25.00
2022-08-02T08:52:40.113Z,25.30
2022-08-02T08:55:11.849Z,25.60
2022-08-02T08:57:42.471Z,25.70
2022-08-02T09:00:13.475Z,25.80
2022-08-02T09:02:42.628Z,25.80
2022-08-02T09:05:14.499Z,25.90
2022-08-02T09:07:44.581Z,26.00
2022-08-02T09:10:37.186Z,25.90
2022-08-02T09:13:38.948Z,25.90
2022-08-02T09:16:11.774Z,26.00
2022-08-02T09:18:44.674Z,26.00
2022-08-02T09:21:12.567Z,26.10
2022-08-02T09:23:47.374Z,26.30
2022-08-02T09:26:19.946Z,26.30
2022-08-02T09:28:50.137Z,26.50
2022-08-02T09:31:19.791Z,26.60
2022-08-02T09:33:51.684Z,26.70
2022-08-02T09:36:18.595Z,26.70
2022-08-02T09:38:57.116Z,26.80
2022-08-02T09:41:31.981Z,27.00
2022-08-02T09:44:05.043Z,27.20
2022-08-02T09:46:37.422Z,27.40
2022-08-02T09:49:19.515Z,27.60
2022-08-02T09:51:49.356Z,27.70
2022-08-02T09:54:28.900Z,27.80
2022-08-02T09:57:00.916Z,28.00
2022-08-02T09:59:28.957Z,28.10
2022-08-02T10:02:01.577Z,28.30
2022-08-02T10:04:34.082Z,28.10
2022-08-02T10:07:12.852Z,28.10
2022-08-02T10:09:46.426Z,28.00
2022-08-02T10:12:15.773Z,27.90
2022-08-02T10:14:43.856Z,28.10
2022-08-02T10:17:10.917Z,28.30
2022-08-02T10:20:03.101Z,28.60
2022-08-02T10:22:25.492Z,28.50
2022-08-02T10:24:52.942Z,28.40
2022-08-02T10:27:21.252Z,28.30
2022-08-02T10:29:54.083Z,28.20
2022-08-02T10:32:22.195Z,28.10
2022-08-02T10:34:55.292Z,28.00
2022-08-02T10:37:29.898Z,28.00
2022-08-02T10:39:57.970Z,27.90
2022-08-02T10:42:47.065Z,28.00
2022-08-02T10:45:16.545Z,28.00
2022-08-02T10:48:02.901Z,28.10
2022-08-02T10:50:48.684Z,28.20
2022-08-02T10:53:35.229Z,28.20
2022-08-02T10:56:06.074Z,28.30
2022-08-02T10:58:36.128Z,28.40
2022-08-02T11:01:27.295Z,28.70
2022-08-02T11:04:10.058Z,28.90
2022-08-02T11:07:06.974Z,28.90
2022-08-02T11:09:34.086Z,29.00
2022-08-02T11:12:08.771Z,29.00
2022-08-02T11:14:38.074Z,29.10
2022-08-02T11:17:05.911Z,29.20
2022-08-02T11:19:35.044Z,29.10
2022-08-02T11:22:03.515Z,29.00
2022-08-02T11:24:31.290Z,29.10
2022-08-02T11:27:00.666Z,29.40
2022-08-02T11:29:38.684Z,29.50
2022-08-02T11:32:16.879Z,29.20
2022-08-02T11:34:47.771Z,29.10
2022-08-02T11:37:37.723Z,29.20
2022-08-02T11:40:09.125Z,29.30
2022-08-02T11:42:50.867Z,29.60
2022-08-02T11:45:21.358Z,29.80
2022-08-02T11:47:54.526Z,29.90
2022-08-02T11:50:30.429Z,29.80
2022-08-02T11:52:58.304Z,30.00
2022-08-02T11:55:29.699Z,30.10
2022-08-02T11:58:04.161Z,30.20
2022-08-02T12:00:31.917Z,30.10
2022-08-02T12:02:58.899Z,30.00
2022-08-02T12:05:51.247Z,29.80
2022-08-02T12:08:13.562Z,29.80
2022-08-02T12:10:48.361Z,30.10
2022-08-02T12:13:15.551Z,30.40
2022-08-02T12:15:45.228Z,30.40
2022-08-02T12:18:39.111Z,30.60
2022-08-02T12:21:25.440Z,30.50
2022-08-02T12:24:00.116Z,30.10
2022-08-02T12:26:29.059Z,30.20
2022-08-02T12:28:57.722Z,30.00
2022-08-02T12:31:56.828Z,30.10
2022-08-02T12:34:31.735Z,30.10
2022-08-02T12:37:07.594Z,30.20
2022-08-02T12:39:44.801Z,30.00
2022-08-02T12:42:14.554Z,29.80
2022-08-02T12:45:10.800Z,29.80
2022-08-02T12:47:46.830Z,29.80
2022-08-02T12:50:20.967Z,29.80
2022-08-02T12:52:49.102Z,29.80
2022-08-02T12:55:25.828Z,29.90
2022-08-02T12:58:12.767Z,30.30
2022-08-02T13:00:40.136Z,30.70
2022-08-02T13:04:08.015Z,30.80
2022-08-02T13:05:56.883Z,30.60
2022-08-02T13:08:26.053Z,30.60
2022-08-02T13:10:52.790Z,30.80
2022-08-02T13:13:19.522Z,30.90
2022-08-02T13:15:49.126Z,31.00
2022-08-02T13:18:18.334Z,30.90
2022-08-02T13:20:45.645Z,31.00
2022-08-02T13:23:21.139Z,31.40
2022-08-02T13:25:48.322Z,31.90
2022-08-02T13:28:19.732Z,32.30
2022-08-02T13:30:47.209Z,32.10
2022-08-02T13:33:14.851Z,32.50
2022-08-02T13:35:42.876Z,33.00
2022-08-02T13:38:09.708Z,33.00
2022-08-02T13:41:04.330Z,33.40
2022-08-02T13:43:53.502Z,33.30
2022-08-02T13:46:28.583Z,33.20
2022-08-02T13:48:56.739Z,33.30
2022-08-02T13:51:23.585Z,33.40
2022-08-02T13:53:50.429Z,33.50
2022-08-02T13:56:17.340Z,33.40
2022-08-02T13:58:44.140Z,33.50
2022-08-02T14:01:11.033Z,33.60
2022-08-02T14:04:08.024Z,33.70
2022-08-02T14:06:24.708Z,33.90
2022-08-02T14:08:52.003Z,34.40
2022-08-02T14:11:19.461Z,35.10
2022-08-02T14:13:46.216Z,35.40
2022-08-02T14:16:12.924Z,35.50
2022-08-02T14:18:39.885Z,35.50
2022-08-02T14:21:06.737Z,35.90
2022-08-02T14:23:50.562Z,35.90
2022-08-02T14:26:27.689Z,35.70
2022-08-02T14:28:55.307Z,35.00
2022-08-02T14:31:22.148Z,34.40
2022-08-02T14:33:48.871Z,33.90
2022-08-02T14:36:15.798Z,33.50
2022-08-02T14:38:55.441Z,33.20
2022-08-02T14:41:22.692Z,32.80
2022-08-02T14:44:04.694Z,32.50
2022-08-02T14:46:33.250Z,32.30
2022-08-02T14:49:02.377Z,31.80
2022-08-02T14:51:32.265Z,31.70
2022-08-02T14:54:02.812Z,31.50
2022-08-02T14:56:30.607Z,31.50
2022-08-02T14:58:57.891Z,31.40
2022-08-02T15:01:26.232Z,31.40
2022-08-02T15:03:53.539Z,31.40
2022-08-02T15:06:20.538Z,31.10
2022-08-02T15:08:47.442Z,31.00
2022-08-02T15:11:14.278Z,30.90
2022-08-02T15:13:42.520Z,30.80
2022-08-02T15:16:09.916Z,30.70
2022-08-02T15:18:36.649Z,30.70
2022-08-02T15:21:18.933Z,30.70
2022-08-02T15:23:50.615Z,30.80
2022-08-02T15:26:17.966Z,30.90
2022-08-02T15:28:44.668Z,30.90
2022-08-02T15:31:11.425Z,30.80
2022-08-02T15:33:50.102Z,30.70
2022-08-02T15:36:17.102Z,30.70
2022-08-02T15:38:44.012Z,30.70
2022-08-02T15:41:10.835Z,30.70
2022-08-02T15:43:59.957Z,30.60
2022-08-02T15:46:30.988Z,30.70
2022-08-02T15:48:59.514Z,30.80
2022-08-02T15:51:26.576Z,30.80
2022-08-02T15:53:53.352Z,30.70
2022-08-02T15:56:24.100Z,30.70
2022-08-02T15:58:51.712Z,30.70
2022-08-02T16:01:21.086Z,30.70
2022-08-02T16:03:48.273Z,30.70
2022-08-02T16:06:15.776Z,30.70
2022-08-02T16:08:45.514Z,30.70
2022-08-02T16:11:21.915Z,30.60
2022-08-02T16:13:54.156Z,30.60
2022-08-02T16:16:28.436Z,30.50
2022-08-02T16:18:55.794Z,30.60
2022-08-02T16:21:23.572Z,30.60
2022-08-02T16:24:01.125Z,30.60
2022-08-02T16:26:34.157Z,30.50
2022-08-02T16:29:03.268Z,30.50
2022-08-02T16:31:30.345Z,30.40
2022-08-02T16:33:57.615Z,30.40
2022-08-02T16:36:26.170Z,30.40
2022-08-02T16:38:54.341Z,30.30
2022-08-02T16:41:21.915Z,30.30
2022-08-02T16:43:49.150Z,30.20
2022-08-02T16:46:16.448Z,30.20
2022-08-02T16:48:51.042Z,30.30
2022-08-02T16:51:18.940Z,30.30
2022-08-02T16:53:59.983Z,30.30
2022-08-02T16:56:30.801Z,30.30
2022-08-02T16:58:59.716Z,30.30
2022-08-02T17:02:01.887Z,30.30
2022-08-02T17:04:15.634Z,30.40
2022-08-02T17:06:47.775Z,30.30
2022-08-02T17:10:03.478Z,30.30
2022-08-02T17:12:13.497Z,30.30
2022-08-02T17:14:55.077Z,30.20
2022-08-02T17:17:34.260Z,30.10
2022-08-02T17:20:02.053Z,30.00
2022-08-02T17:22:29.072Z,30.00
2022-08-02T17:24:56.374Z,29.90
2022-08-02T17:27:26.123Z,29.90
2022-08-02T17:29:53.699Z,29.90
2022-08-02T17:32:20.540Z,29.80
2022-08-02T17:34:56.562Z,29.80
2022-08-02T17:37:28.748Z,29.70
2022-08-02T17:39:56.918Z,29.70
2022-08-02T17:42:24.791Z,29.60
2022-08-02T17:44:53.367Z,29.60
2022-08-02T17:47:20.895Z,29.50
2022-08-02T17:49:49.176Z,29.50
2022-08-02T17:52:50.833Z,29.50
2022-08-02T17:55:07.728Z,29.40
2022-08-02T17:57:55.659Z,29.30
2022-08-02T18:00:21.752Z,29.30
2022-08-02T18:02:55.218Z,29.30
2022-08-02T18:05:23.706Z,29.20
2022-08-02T18:08:07.648Z,29.20
2022-08-02T18:10:34.498Z,29.20
2022-08-02T18:13:03.615Z,29.10
2022-08-02T18:15:32.395Z,29.00
2022-08-02T18:18:00.102Z,28.90
2022-08-02T18:20:26.807Z,28.90
2022-08-02T18:22:58.382Z,28.90
2022-08-02T18:25:36.267Z,28.90
2022-08-02T18:28:05.389Z,28.90
2022-08-02T18:30:33.918Z,28.90
2022-08-02T18:33:57.198Z,28.70
2022-08-02T18:35:47.835Z,28.70
2022-08-02T18:38:15.217Z,28.60
2022-08-02T18:40:42.891Z,28.60
2022-08-02T18:43:09.878Z,28.60
2022-08-02T18:46:06.128Z,28.50
2022-08-02T18:48:30.056Z,28.50
2022-08-02T18:50:56.989Z,28.30
2022-08-02T18:53:39.041Z,28.30
2022-08-02T18:56:08.822Z,28.30
2022-08-02T18:58:35.607Z,28.20
2022-08-02T19:01:05.144Z,28.20
2022-08-02T19:03:41.966Z,28.10
2022-08-02T19:06:19.665Z,28.10
2022-08-02T19:09:06.128Z,28.00
2022-08-02T19:11:34.844Z,27.90
2022-08-02T19:14:02.029Z,27.80
2022-08-02T19:16:37.341Z,27.80
2022-08-02T19:19:07.647Z,27.70
2022-08-02T19:22:16.394Z,27.70
2022-08-02T19:24:21.872Z,27.60
2022-08-02T19:26:51.299Z,27.60
2022-08-02T19:29:25.004Z,27.40
2022-08-02T19:32:39.755Z,27.40
2022-08-02T19:34:55.982Z,27.30
2022-08-02T19:37:23.028Z,27.30
2022-08-02T19:39:50.574Z,27.10
2022-08-02T19:42:18.839Z,27.00
2022-08-02T19:44:46.513Z,26.90
2022-08-02T19:47:18.883Z,26.90
2022-08-02T19:49:48.723Z,26.90
2022-08-02T19:52:21.587Z,26.80
2022-08-02T19:54:54.192Z,26.80
2022-08-02T19:57:22.886Z,26.70
2022-08-02T19:59:49.777Z,26.70
2022-08-02T20:02:18.284Z,26.60
2022-08-02T20:04:49.817Z,26.60
2022-08-02T20:07:24.524Z,26.60
2022-08-02T20:10:04.599Z,26.60
2022-08-02T20:12:37.102Z,26.50
2022-08-02T20:15:07.940Z,26.40
2022-08-02T20:17:47.686Z,26.40
2022-08-02T20:20:17.336Z,26.30
2022-08-02T20:23:03.973Z,26.30
2022-08-02T20:25:54.043Z,26.30
2022-08-02T20:28:22.488Z,26.20
2022-08-02T20:30:49.877Z,26.20
2022-08-02T20:33:21.864Z,26.20
2022-08-02T20:35:51.578Z,26.10
2022-08-02T20:38:20.335Z,26.10
2022-08-02T20:40:52.038Z,26.00
2022-08-02T20:43:18.852Z,26.00
2022-08-02T20:45:46.264Z,26.00
2022-08-02T20:48:13.088Z,26.00
2022-08-02T20:50:49.340Z,26.00
2022-08-02T20:53:23.225Z,25.90
2022-08-02T20:55:53.111Z,25.80
2022-08-02T20:58:20.155Z,25.80
2022-08-02T21:00:47.986Z,25.70
2022-08-02T21:03:16.211Z,25.60
2022-08-02T21:05:54.822Z,25.60
2022-08-02T21:08:23.383Z,25.50
2022-08-02T21:10:52.577Z,25.50
2022-08-02T21:13:23.128Z,25.50
2022-08-02T21:15:51.600Z,25.40
2022-08-02T21:18:24.164Z,25.40
2022-08-02T21:21:03.431Z,25.40
2022-08-02T21:23:30.444Z,25.30
2022-08-02T21:26:03.898Z,25.30
2022-08-02T21:28:43.385Z,25.20
2022-08-02T21:31:15.270Z,25.20
2022-08-02T21:33:56.790Z,25.20
2022-08-02T21:36:31.148Z,25.20
2022-08-02T21:39:04.571Z,25.10
2022-08-02T21:41:50.193Z,25.00
2022-08-02T21:44:19.428Z,24.90
2022-08-02T21:46:49.541Z,24.90
2022-08-02T21:49:20.538Z,24.80
2022-08-02T21:51:49.177Z,24.70
2022-08-02T21:54:20.302Z,24.70
2022-08-02T21:56:50.178Z,24.60
2022-08-02T21:59:26.356Z,24.60
2022-08-02T22:01:56.997Z,24.60
2022-08-02T22:04:25.802Z,24.50
2022-08-02T22:06:53.530Z,24.50
2022-08-02T22:09:43.373Z,24.40
2022-08-02T22:12:10.388Z,24.40
2022-08-02T22:14:49.518Z,24.40
2022-08-02T22:17:49.828Z,24.30
2022-08-02T22:20:09.632Z,24.30
2022-08-02T22:22:39.396Z,24.20
2022-08-02T22:25:06.618Z,24.20
2022-08-02T22:28:15.874Z,24.20
2022-08-02T22:30:35.369Z,24.10
2022-08-02T22:33:33.267Z,24.10
2022-08-02T22:36:00.752Z,24.10
2022-08-02T22:38:28.480Z,24.00
2022-08-02T22:40:55.235Z,24.00
2022-08-02T22:43:22.939Z,24.00
2022-08-02T22:45:51.279Z,23.90
2022-08-02T22:48:18.069Z,23.90
2022-08-02T22:50:44.909Z,23.90
2022-08-02T22:53:12.314Z,23.90
2022-08-02T22:55:41.669Z,23.90
2022-08-02T22:58:09.280Z,24.00
2022-08-02T23:00:36.139Z,23.90
2022-08-02T23:03:06.629Z,23.90
2022-08-02T23:05:34.197Z,23.90
2022-08-02T23:08:00.966Z,23.90
2022-08-02T23:10:28.094Z,23.80
2022-08-02T23:12:58.944Z,23.80
2022-08-02T23:15:26.885Z,23.80
2022-08-02T23:18:12.555Z,23.70
2022-08-02T23:20:40.723Z,23.70
2022-08-02T23:23:11.660Z,23.70
2022-08-02T23:25:38.714Z,23.70
2022-08-02T23:28:05.525Z,23.80
2022-08-02T23:30:32.261Z,23.80
2022-08-02T23:32:59.154Z,23.80
2022-08-02T23:35:25.911Z,23.80
2022-08-02T23:37:59.994Z,23.80
2022-08-02T23:40:31.386Z,23.80
2022-08-02T23:43:13.321Z,23.80
2022-08-02T23:45:43.107Z,23.80
2022-08-02T23:48:09.908Z,23.80
2022-08-02T23:50:36.707Z,23.80
2022-08-02T23:53:03.897Z,23.80
2022-08-02T23:55:30.637Z,23.80
2022-08-02T23:57:57.537Z,23.80
